< < Back
Terminal Aerodrome Forecast


Current Version              Previous Versions:   1  2  3  4  5  6  7  8  9  

Terminal Aerodrome Forecast

508
FTUS44 KOHX 192300
TAFBNA
TAF
KBNA 192332Z 2000/2024 02009KT P6SM FEW150
     FM200100 04004KT P6SM SKC
     FM201500 08003KT P6SM SCT250=



Latest METAR

654
SAUS70 KWBC 201800 RRG
MTRBNA
METAR KBNA 201753Z 00000KT 10SM SCT200 25/05 A3019 RMK AO2 SLP220
T02500050 10250 20078 58014


USA.gov is the U.S. government's official web portal to all federal, state and local government web resources and services.